Date,TemperatureHighF,TemperatureAvgF,TemperatureLowF,DewpointHighF,DewpointAvgF,DewpointLowF,HumidityHigh,HumidityAvg,HumidityLow,PressureMaxIn,PressureMinIn,WindSpeedMaxMPH,WindSpeedAvgMPH,GustSpeedMaxMPH,PrecipitationSumIn
2013-6-1,96.3,82.9,70.3,70.6,67.4,65.3,86,61,42,30.38,30.22,6,3,15,0.00
2013-6-2,87.3,77.4,68.0,72.2,68.5,15.2,99,75,57,30.25,30.16,6,4,15,0.73
2013-6-3,86.2,73.6,65.7,71.8,66.8,58.1,99,81,52,30.27,30.13,6,2,16,0.39
2013-6-4,80.1,69.1,59.2,58.4,48.7,39.4,79,52,27,30.45,30.27,5,2,12,0.00
2013-6-5,86.4,70.4,58.3,58.2,53.0,48.3,82,56,32,30.50,30.38,5,1,12,0.00
2013-6-6,75.2,69.0,54.1,66.2,63.3,53.3,99,83,61,30.37,30.18,4,2,13,4.06
2013-6-7,70.9,68.1,65.3,70.3,67.8,65.0,99,99,98,30.18,29.90,5,1,14,1.78
2013-6-8,86.4,72.8,65.8,66.7,63.0,60.3,99,74,44,30.42,30.01,5,2,13,0.01
2013-6-9,88.2,75.1,64.9,71.9,66.0,59.8,89,74,53,30.51,30.40,3,1,9,0.00
2013-6-10,83.3,72.7,68.2,77.6,71.4,67.9,99,96,78,30.43,30.12,5,1,13,1.65
2013-6-11,85.1,75.1,66.4,70.2,65.9,63.0,99,75,50,30.19,30.10,6,3,18,0.01
2013-6-12,92.7,80.8,68.4,71.4,66.3,63.0,87,63,41,30.19,30.09,6,2,15,0.00
2013-6-13,90.0,76.4,70.5,76.1,69.6,60.1,99,81,48,30.14,29.79,9,3,25,0.52
2013-6-14,83.3,72.7,60.4,59.9,54.5,48.6,91,55,35,30.30,29.93,8,3,23,0.01
2013-6-15,86.9,75.1,63.7,60.1,56.5,52.1,80,55,34,30.40,30.29,5,2,12,0.00
2013-6-16,85.8,77.8,67.3,69.4,64.2,56.0,83,64,49,30.35,30.20,7,2,19,0.00
2013-6-17,90.5,80.1,71.2,73.8,68.5,63.4,89,69,47,30.28,30.19,3,1,11,0.00
2013-6-18,77.0,71.6,64.9,72.5,69.4,64.7,99,93,84,30.24,30.12,3,1,8,0.28
2013-6-19,83.5,70.8,63.9,66.9,63.8,59.9,99,80,48,30.49,30.21,3,1,8,0.00
2013-6-20,87.1,73.1,63.7,66.1,61.0,54.3,99,69,39,30.60,30.49,4,1,14,0.00
2013-6-21,90.0,75.6,59.7,66.1,55.6,46.9,88,54,24,30.64,30.53,3,1,9,0.00
2013-6-22,93.4,77.9,64.2,68.8,65.8,62.7,99,70,41,30.59,30.42,4,2,15,0.00
2013-6-23,91.2,77.3,69.8,75.3,71.2,68.0,99,83,53,30.52,30.37,3,1,9,0.83
2013-6-24,95.4,80.0,71.2,75.3,71.7,67.0,99,78,41,30.45,30.32,6,2,17,0.01
2013-6-25,96.6,82.8,69.6,73.9,70.5,62.5,99,70,42,30.38,30.18,10,2,20,0.00
2013-6-26,95.2,79.9,69.8,77.6,70.3,65.5,98,75,46,30.26,30.14,4,2,11,0.02
2013-6-27,87.8,75.5,69.1,75.0,71.9,68.8,99,89,64,30.17,29.93,5,2,15,0.01
2013-6-28,92.1,75.7,68.0,73.9,70.4,15.2,98,86,12,29.97,29.82,10,2,28,0.79
2013-6-29,94.1,79.4,67.1,73.9,67.0,61.0,99,70,39,30.03,29.86,4,1,11,0.00
2013-6-30,92.8,79.5,73.2,77.5,74.9,71.0,99,87,52,30.19,30.03,3,1,11,0.00